createdAt,value
2022-10-23T00:00:30.305Z,99168.00
2022-10-23T00:02:58.413Z,99171.84
2022-10-23T00:05:27.081Z,99154.72
2022-10-23T00:07:55.481Z,99163.38
2022-10-23T00:10:23.158Z,99164.31
2022-10-23T00:12:51.039Z,99166.56
2022-10-23T00:15:20.424Z,99159.53
2022-10-23T00:17:47.108Z,99158.25
2022-10-23T00:20:16.324Z,99162.88
2022-10-23T00:22:42.827Z,99163.50
2022-10-23T00:25:10.580Z,99150.59
2022-10-23T00:27:37.552Z,99155.03
2022-10-23T00:30:05.843Z,99156.50
2022-10-23T00:35:05.034Z,99155.84
2022-10-23T00:37:33.032Z,99164.16
2022-10-23T00:39:59.550Z,99159.03
2022-10-23T00:42:26.221Z,99165.28
2022-10-23T00:45:16.815Z,99154.41
2022-10-23T00:47:43.524Z,99152.31
2022-10-23T00:50:10.239Z,99153.28
2022-10-23T00:52:42.705Z,99148.16
2022-10-23T00:55:09.877Z,99158.22
2022-10-23T00:57:39.536Z,99155.19
2022-10-23T01:00:07.586Z,99148.78
2022-10-23T01:02:34.667Z,99145.94
2022-10-23T01:05:01.229Z,99143.84
2022-10-23T01:07:33.300Z,99144.63
2022-10-23T01:10:10.076Z,99145.25
2022-10-23T01:12:44.392Z,99144.47
2022-10-23T01:15:16.418Z,99142.84
2022-10-23T01:17:48.124Z,99137.44
2022-10-23T01:20:31.238Z,99137.13
2022-10-23T01:23:12.094Z,99139.84
2022-10-23T01:26:15.284Z,99140.94
2022-10-23T01:28:49.720Z,99141.75
2022-10-23T01:31:22.337Z,99148.94
2022-10-23T01:33:55.852Z,99134.88
2022-10-23T01:36:26.705Z,99124.50
2022-10-23T01:38:58.809Z,99124.97
2022-10-23T01:41:30.652Z,99122.59
2022-10-23T01:44:04.731Z,99130.75
2022-10-23T01:46:32.983Z,99119.06
2022-10-23T01:49:00.257Z,99123.84
2022-10-23T01:51:31.212Z,99120.50
2022-10-23T01:54:00.400Z,99126.84
2022-10-23T01:56:31.444Z,99125.59
2022-10-23T01:59:03.617Z,99125.09
2022-10-23T02:01:33.098Z,99127.16
2022-10-23T02:04:01.171Z,99123.16
2022-10-23T02:06:28.218Z,99129.53
2022-10-23T02:08:54.746Z,99122.84
2022-10-23T02:11:21.773Z,99127.00
2022-10-23T02:13:55.998Z,99129.50
2022-10-23T02:16:31.193Z,99125.81
2022-10-23T02:19:07.840Z,99128.66
2022-10-23T02:21:42.128Z,99124.34
2022-10-23T02:24:13.628Z,99109.97
2022-10-23T02:26:43.328Z,99104.38
2022-10-23T02:29:14.529Z,99099.88
2022-10-23T02:31:42.655Z,99104.50
2022-10-23T02:34:09.242Z,99099.72
2022-10-23T02:36:35.851Z,99106.25
2022-10-23T02:39:02.840Z,99106.06
2022-10-23T02:41:37.896Z,99104.13
2022-10-23T02:44:23.663Z,99106.50
2022-10-23T02:47:00.532Z,99112.53
2022-10-23T02:49:34.819Z,99110.94
2022-10-23T02:52:08.876Z,99093.41
2022-10-23T02:54:49.119Z,99083.81
2022-10-23T02:57:22.994Z,99076.06
2022-10-23T02:59:59.232Z,99077.81
2022-10-23T03:02:35.048Z,99067.47
2022-10-23T03:05:03.087Z,99070.66
2022-10-23T03:07:30.153Z,99070.03
2022-10-23T03:09:56.771Z,99075.94
2022-10-23T03:12:23.367Z,99074.94
2022-10-23T03:14:49.882Z,99075.09
2022-10-23T03:17:16.399Z,99071.09
2022-10-23T03:19:44.340Z,99071.09
2022-10-23T03:22:10.868Z,99068.09
2022-10-23T03:24:37.391Z,99065.06
2022-10-23T03:27:03.952Z,99068.25
2022-10-23T03:29:30.515Z,99066.66
2022-10-23T03:31:57.005Z,99061.56
2022-10-23T03:34:23.480Z,99055.94
2022-10-23T03:36:51.358Z,99050.19
2022-10-23T03:39:17.868Z,99052.75
2022-10-23T03:41:44.390Z,99056.38
2022-10-23T03:44:10.986Z,99055.88
2022-10-23T03:46:37.494Z,99048.19
2022-10-23T03:49:04.056Z,99047.25
2022-10-23T03:51:30.567Z,99051.06
2022-10-23T03:53:58.416Z,99034.63
2022-10-23T03:56:24.933Z,99032.72
2022-10-23T03:58:51.470Z,99040.22
2022-10-23T04:01:18.046Z,99026.03
2022-10-23T04:03:44.599Z,99023.50
2022-10-23T04:06:11.221Z,99029.25
2022-10-23T04:08:37.854Z,99043.50
2022-10-23T04:11:06.095Z,99033.91
2022-10-23T04:13:32.596Z,99035.81
2022-10-23T04:15:59.106Z,99025.44
2022-10-23T04:18:25.696Z,99026.06
2022-10-23T04:20:52.497Z,99029.41
2022-10-23T04:23:19.022Z,99039.94
2022-10-23T04:28:18.755Z,99036.09
2022-10-23T04:30:45.261Z,99037.25
2022-10-23T04:33:11.859Z,99026.22
2022-10-23T04:35:38.456Z,99030.66
2022-10-23T04:38:05.127Z,99021.38
2022-10-23T04:40:31.618Z,99026.59
2022-10-23T04:42:58.239Z,99021.59
2022-10-23T04:45:26.255Z,99024.47
2022-10-23T04:47:52.776Z,99022.06
2022-10-23T04:50:19.678Z,99024.25
2022-10-23T04:52:46.558Z,99036.03
2022-10-23T04:55:13.040Z,99034.25
2022-10-23T04:57:39.617Z,99033.59
2022-10-23T05:00:08.692Z,99029.59
2022-10-23T05:02:36.540Z,99028.47
2022-10-23T05:05:03.506Z,99026.38
2022-10-23T05:07:30.185Z,99021.09
2022-10-23T05:09:56.679Z,99015.69
2022-10-23T05:12:23.221Z,99019.31
2022-10-23T05:14:49.717Z,99009.72
2022-10-23T05:17:19.157Z,99019.88
2022-10-23T05:19:52.884Z,99020.47
2022-10-23T05:22:20.663Z,99015.06
2022-10-23T05:24:50.423Z,99022.88
2022-10-23T05:27:17.557Z,99028.00
2022-10-23T05:29:44.131Z,99028.81
2022-10-23T05:32:13.566Z,99028.47
2022-10-23T05:34:41.188Z,99032.97
2022-10-23T05:37:12.706Z,99033.94
2022-10-23T05:39:39.536Z,99016.94
2022-10-23T05:42:06.098Z,99018.03
2022-10-23T05:44:32.686Z,99015.13
2022-10-23T05:46:59.207Z,99011.25
2022-10-23T05:49:25.780Z,99024.59
2022-10-23T05:51:52.568Z,99021.72
2022-10-23T05:54:20.410Z,99009.28
2022-10-23T05:56:47.051Z,99015.31
2022-10-23T05:59:13.553Z,99015.31
2022-10-23T06:01:40.260Z,99009.09
2022-10-23T06:04:06.874Z,99008.28
2022-10-23T06:06:33.386Z,99017.53
2022-10-23T06:08:59.975Z,99015.31
2022-10-23T06:11:27.844Z,99010.69
2022-10-23T06:13:54.441Z,99011.50
2022-10-23T06:16:23.190Z,99024.22
2022-10-23T06:18:49.682Z,99016.13
2022-10-23T06:21:16.865Z,99008.66
2022-10-23T06:23:45.239Z,99001.84
2022-10-23T06:26:13.829Z,98997.22
2022-10-23T06:28:42.438Z,99002.53
2022-10-23T06:31:11.080Z,98993.78
2022-10-23T06:33:37.760Z,99001.59
2022-10-23T06:36:05.466Z,99000.50
2022-10-23T06:38:32.024Z,99000.69
2022-10-23T06:40:58.551Z,98988.63
2022-10-23T06:43:25.084Z,98988.47
2022-10-23T06:45:52.939Z,99003.59
2022-10-23T06:48:19.455Z,99001.09
2022-10-23T06:50:46.034Z,98995.84
2022-10-23T06:53:12.608Z,99002.75
2022-10-23T06:55:39.189Z,99001.00
2022-10-23T06:58:05.808Z,98992.25
2022-10-23T07:00:32.474Z,99000.56
2022-10-23T07:03:00.531Z,98995.16
2022-10-23T07:05:27.031Z,98996.91
2022-10-23T07:07:53.577Z,98999.50
2022-10-23T07:10:20.242Z,98996.66
2022-10-23T07:12:46.739Z,98996.50
2022-10-23T07:15:13.256Z,98996.88
2022-10-23T07:17:39.765Z,98999.91
2022-10-23T07:20:08.401Z,98997.34
2022-10-23T07:22:35.029Z,98993.53
2022-10-23T07:25:01.549Z,98994.22
2022-10-23T07:27:28.132Z,98988.47
2022-10-23T07:29:54.817Z,98978.59
2022-10-23T07:32:21.452Z,98976.50
2022-10-23T07:34:47.968Z,98974.59
2022-10-23T07:37:15.874Z,98972.38
2022-10-23T07:39:42.410Z,98983.41
2022-10-23T07:42:09.680Z,98988.38
2022-10-23T07:44:36.199Z,98989.69
2022-10-23T07:47:04.684Z,98988.25
2022-10-23T07:49:31.300Z,98982.56
2022-10-23T07:51:57.933Z,98981.28
2022-10-23T07:54:27.054Z,98983.00
2022-10-23T07:56:53.579Z,98966.72
2022-10-23T07:59:22.020Z,98971.50
2022-10-23T08:01:50.561Z,98973.91
2022-10-23T08:04:20.391Z,98970.84
2022-10-23T08:06:46.884Z,98979.47
2022-10-23T08:09:13.503Z,98980.88
2022-10-23T08:11:41.423Z,98985.16
2022-10-23T08:14:09.577Z,98962.81
2022-10-23T08:16:38.304Z,98958.94
2022-10-23T08:19:07.054Z,98946.91
2022-10-23T08:21:33.588Z,98955.81
2022-10-23T08:24:00.770Z,98958.81
2022-10-23T08:26:28.567Z,98963.69
2022-10-23T08:28:58.571Z,98959.97
2022-10-23T08:31:25.484Z,98962.25
2022-10-23T08:33:52.049Z,98958.34
2022-10-23T08:36:21.695Z,98952.00
2022-10-23T08:38:48.862Z,98951.72
2022-10-23T08:41:24.524Z,98955.94
2022-10-23T08:43:56.563Z,98951.84
2022-10-23T08:46:29.958Z,98951.31
2022-10-23T08:49:06.223Z,98959.63
2022-10-23T08:51:38.379Z,98955.72
2022-10-23T08:54:12.207Z,98962.09
2022-10-23T08:56:43.876Z,98955.06
2022-10-23T08:59:16.892Z,98949.88
2022-10-23T09:01:49.369Z,98945.06
2022-10-23T09:04:16.728Z,98934.66
2022-10-23T09:06:50.377Z,98945.25
2022-10-23T09:09:39.157Z,98935.84
2022-10-23T09:12:11.595Z,98943.25
2022-10-23T09:15:00.655Z,98942.84
2022-10-23T09:17:30.595Z,98943.53
2022-10-23T09:20:05.243Z,98942.72
2022-10-23T09:22:32.104Z,98936.38
2022-10-23T09:24:58.840Z,98933.50
2022-10-23T09:27:25.405Z,98940.72
2022-10-23T09:29:53.922Z,98930.44
2022-10-23T09:32:34.416Z,98933.84
2022-10-23T09:35:01.194Z,98926.44
2022-10-23T09:37:29.761Z,98911.47
2022-10-23T09:40:17.020Z,98916.19
2022-10-23T09:42:52.897Z,98902.97
2022-10-23T09:45:29.274Z,98900.28
2022-10-23T09:48:16.223Z,98901.81
2022-10-23T09:50:48.396Z,98902.75
2022-10-23T09:53:18.760Z,98895.66
2022-10-23T09:55:52.369Z,98896.63
2022-10-23T09:58:21.613Z,98896.84
2022-10-23T10:00:51.128Z,98901.19
2022-10-23T10:03:23.925Z,98889.91
2022-10-23T10:05:56.367Z,98887.25
2022-10-23T10:08:28.650Z,98892.22
2022-10-23T10:11:00.238Z,98899.59
2022-10-23T10:13:43.671Z,98897.00
2022-10-23T10:16:16.633Z,98904.22
2022-10-23T10:18:50.987Z,98894.03
2022-10-23T10:21:21.009Z,98888.22
2022-10-23T10:23:52.762Z,98885.09
2022-10-23T10:26:34.927Z,98887.13
2022-10-23T10:29:12.088Z,98888.69
2022-10-23T10:31:53.278Z,98888.94
2022-10-23T10:34:28.616Z,98889.78
2022-10-23T10:36:57.511Z,98885.69
2022-10-23T10:39:40.409Z,98886.13
2022-10-23T10:42:24.368Z,98888.25
2022-10-23T10:45:01.876Z,98882.75
2022-10-23T10:47:33.245Z,98868.72
2022-10-23T10:50:18.136Z,98874.22
2022-10-23T10:52:55.004Z,98859.75
2022-10-23T10:55:28.250Z,98853.03
2022-10-23T10:58:01.127Z,98841.50
2022-10-23T11:00:31.172Z,98842.28
2022-10-23T11:03:01.601Z,98857.50
2022-10-23T11:05:32.787Z,98843.69
2022-10-23T11:08:05.323Z,98836.97
2022-10-23T11:10:33.391Z,98837.31
2022-10-23T11:12:59.982Z,98839.00
2022-10-23T11:15:34.053Z,98831.94
2022-10-23T11:18:03.759Z,98827.00
2022-10-23T11:20:45.116Z,98823.03
2022-10-23T11:23:32.880Z,98815.94
2022-10-23T11:26:13.409Z,98813.19
2022-10-23T11:28:59.086Z,98802.56
2022-10-23T11:31:35.611Z,98803.44
2022-10-23T11:34:33.657Z,98795.75
2022-10-23T11:37:03.416Z,98805.69
2022-10-23T11:39:31.265Z,98801.03
2022-10-23T11:41:59.740Z,98801.47
2022-10-23T11:44:41.423Z,98795.63
2022-10-23T11:47:27.590Z,98778.19
2022-10-23T11:50:19.606Z,98783.22
2022-10-23T11:53:14.347Z,98777.25
2022-10-23T11:55:57.241Z,98782.09
2022-10-23T11:58:26.160Z,98778.88
2022-10-23T12:00:58.695Z,98781.25
2022-10-23T12:03:30.846Z,98776.03
2022-10-23T12:06:04.551Z,98762.38
2022-10-23T12:08:35.612Z,98766.63
2022-10-23T12:11:02.565Z,98768.38
2022-10-23T12:13:42.440Z,98765.59
2022-10-23T12:16:09.191Z,98758.94
2022-10-23T12:18:46.729Z,98759.13
2022-10-23T12:21:17.959Z,98755.72
2022-10-23T12:24:02.856Z,98750.66
2022-10-23T12:26:44.283Z,98734.25
2022-10-23T12:29:24.258Z,98731.66
2022-10-23T12:31:59.436Z,98728.22
2022-10-23T12:34:36.225Z,98724.38
2022-10-23T12:37:18.768Z,98724.88
2022-10-23T12:39:53.104Z,98728.91
2022-10-23T12:42:25.132Z,98731.31
2022-10-23T12:44:59.599Z,98727.00
2022-10-23T12:47:26.908Z,98701.50
2022-10-23T12:49:54.646Z,98690.16
2022-10-23T12:52:21.486Z,98697.25
2022-10-23T12:54:51.778Z,98683.13
2022-10-23T12:57:21.973Z,98678.06
2022-10-23T12:59:49.576Z,98675.34
2022-10-23T13:02:25.947Z,98676.63
2022-10-23T13:04:54.702Z,98682.00
2022-10-23T13:07:25.713Z,98669.50
2022-10-23T13:09:54.503Z,98667.97
2022-10-23T13:12:24.616Z,98672.28
2022-10-23T13:14:56.914Z,98678.97
2022-10-23T13:17:34.093Z,98679.75
2022-10-23T13:20:10.108Z,98685.22
2022-10-23T13:22:36.735Z,98682.66
2022-10-23T13:25:26.459Z,98669.28
2022-10-23T13:28:08.750Z,98669.72
2022-10-23T13:30:37.854Z,98659.63
2022-10-23T13:33:13.999Z,98657.72
2022-10-23T13:35:40.631Z,98655.84
2022-10-23T13:38:10.505Z,98659.44
2022-10-23T13:40:38.362Z,98650.06
2022-10-23T13:43:14.289Z,98641.44
2022-10-23T13:45:41.270Z,98637.13
2022-10-23T13:48:13.684Z,98642.66
2022-10-23T13:50:40.257Z,98643.47
2022-10-23T13:53:08.816Z,98625.31
2022-10-23T13:55:35.544Z,98631.94
2022-10-23T13:58:03.532Z,98623.63
2022-10-23T14:00:30.035Z,98613.28
2022-10-23T14:02:56.560Z,98613.50
2022-10-23T14:05:23.212Z,98605.91
2022-10-23T14:07:49.723Z,98594.09
2022-10-23T14:10:16.603Z,98602.63
2022-10-23T14:12:44.509Z,98600.56
2022-10-23T14:15:13.244Z,98593.38
2022-10-23T14:17:39.778Z,98590.28
2022-10-23T14:20:07.492Z,98601.78
2022-10-23T14:22:34.121Z,98595.34
2022-10-23T14:25:00.736Z,98608.53
2022-10-23T14:27:27.291Z,98604.28
2022-10-23T14:29:53.777Z,98606.28
2022-10-23T14:32:21.768Z,98591.38
2022-10-23T14:34:52.452Z,98593.00
2022-10-23T14:37:19.028Z,98587.94
2022-10-23T14:39:49.717Z,98584.41
2022-10-23T14:42:17.379Z,98582.09
2022-10-23T14:44:44.071Z,98575.38
2022-10-23T14:47:10.592Z,98567.13
2022-10-23T14:49:38.592Z,98572.63
2022-10-23T14:52:05.145Z,98577.75
2022-10-23T14:54:31.660Z,98582.50
2022-10-23T14:56:58.201Z,98571.06
2022-10-23T14:59:24.730Z,98571.06
2022-10-23T15:01:51.360Z,98576.97
2022-10-23T15:04:17.908Z,98584.03
2022-10-23T15:06:45.777Z,98565.53
2022-10-23T15:09:12.583Z,98557.25
2022-10-23T15:11:39.249Z,98554.84
2022-10-23T15:14:06.779Z,98546.97
2022-10-23T15:16:33.531Z,98543.03
2022-10-23T15:19:00.031Z,98525.34
2022-10-23T15:21:26.551Z,98518.22
2022-10-23T15:23:54.384Z,98505.97
2022-10-23T15:26:21.577Z,98491.00
2022-10-23T15:28:48.262Z,98483.91
2022-10-23T15:31:39.919Z,98492.50
2022-10-23T15:34:07.962Z,98486.59
2022-10-23T15:36:34.557Z,98476.69
2022-10-23T15:39:05.717Z,98479.34
2022-10-23T15:41:34.092Z,98485.22
2022-10-23T15:44:02.115Z,98459.66
2022-10-23T15:46:28.767Z,98452.53
2022-10-23T15:48:55.493Z,98458.38
2022-10-23T15:51:22.050Z,98450.91
2022-10-23T15:53:48.716Z,98443.81
2022-10-23T15:56:16.623Z,98452.44
2022-10-23T15:58:43.179Z,98453.97
2022-10-23T16:01:17.472Z,98444.53
2022-10-23T16:03:44.330Z,98449.28
2022-10-23T16:06:13.928Z,98452.44
2022-10-23T16:08:43.137Z,98455.19
2022-10-23T16:11:14.659Z,98439.88
2022-10-23T16:13:42.824Z,98442.25
2022-10-23T16:16:09.754Z,98432.78
2022-10-23T16:18:36.411Z,98424.94
2022-10-23T16:21:03.218Z,98427.69
2022-10-23T16:23:29.815Z,98431.59
2022-10-23T16:25:56.331Z,98426.44
2022-10-23T16:28:22.834Z,98422.94
2022-10-23T16:30:50.957Z,98422.16
2022-10-23T16:33:17.495Z,98423.28
2022-10-23T16:35:44.015Z,98422.91
2022-10-23T16:38:10.697Z,98423.25
2022-10-23T16:40:37.276Z,98420.09
2022-10-23T16:43:03.932Z,98427.91
2022-10-23T16:45:33.297Z,98422.38
2022-10-23T16:48:03.829Z,98428.28
2022-10-23T16:50:30.498Z,98426.69
2022-10-23T16:52:57.056Z,98423.16
2022-10-23T16:55:23.726Z,98407.47
2022-10-23T16:57:50.275Z,98420.03
2022-10-23T17:00:17.192Z,98418.84
2022-10-23T17:02:44.037Z,98415.25
2022-10-23T17:05:12.206Z,98410.56
2022-10-23T17:07:38.735Z,98419.91
2022-10-23T17:10:06.131Z,98427.72
2022-10-23T17:12:32.668Z,98415.22
2022-10-23T17:14:59.203Z,98420.69
2022-10-23T17:17:25.692Z,98420.63
2022-10-23T17:19:52.235Z,98425.31
2022-10-23T17:22:20.094Z,98414.31
2022-10-23T17:24:50.126Z,98406.47
2022-10-23T17:27:20.146Z,98407.66
2022-10-23T17:29:46.715Z,98406.91
2022-10-23T17:32:13.286Z,98417.16
2022-10-23T17:34:39.858Z,98410.88
2022-10-23T17:37:06.363Z,98414.78
2022-10-23T17:39:34.354Z,98404.97
2022-10-23T17:42:00.849Z,98398.75
2022-10-23T17:44:27.533Z,98405.78
2022-10-23T17:46:55.116Z,98404.97
2022-10-23T17:49:22.277Z,98392.84
2022-10-23T17:51:51.722Z,98391.59
2022-10-23T17:54:18.289Z,98393.56
2022-10-23T17:56:46.391Z,98398.63
2022-10-23T17:59:14.836Z,98415.56
2022-10-23T18:01:42.131Z,98412.88
2022-10-23T18:04:09.076Z,98421.13
2022-10-23T18:06:40.540Z,98428.53
2022-10-23T18:09:07.298Z,98438.25
2022-10-23T18:11:35.963Z,98439.78
2022-10-23T18:14:04.852Z,98444.44
2022-10-23T18:16:31.592Z,98454.19
2022-10-23T18:18:59.840Z,98457.25
2022-10-23T18:21:26.668Z,98453.72
2022-10-23T18:23:53.265Z,98454.16
2022-10-23T18:26:22.146Z,98467.81
2022-10-23T18:28:49.813Z,98477.19
2022-10-23T18:31:18.611Z,98471.97
2022-10-23T18:33:45.741Z,98488.84
2022-10-23T18:36:14.954Z,98492.31
2022-10-23T18:38:41.718Z,98503.59
2022-10-23T18:41:08.462Z,98494.13
2022-10-23T18:43:49.159Z,98512.09
2022-10-23T18:46:18.383Z,98524.50
2022-10-23T18:48:45.460Z,98525.88
2022-10-23T18:51:17.766Z,98530.84
2022-10-23T18:53:44.873Z,98519.38
2022-10-23T18:56:11.371Z,98532.91
2022-10-23T18:58:37.994Z,98560.53
2022-10-23T19:01:04.769Z,98579.97
2022-10-23T19:03:32.780Z,98570.03
2022-10-23T19:05:59.498Z,98582.78
2022-10-23T19:08:26.173Z,98589.38
2022-10-23T19:10:53.167Z,98598.31
2022-10-23T19:13:19.710Z,98599.78
2022-10-23T19:15:46.408Z,98596.25
2022-10-23T19:18:12.974Z,98617.28
2022-10-23T19:20:42.467Z,98633.66
2022-10-23T19:23:11.662Z,98636.03
2022-10-23T19:25:40.616Z,98636.03
2022-10-23T19:28:07.155Z,98616.88
2022-10-23T19:30:34.683Z,98587.84
2022-10-23T19:33:01.178Z,98590.22
2022-10-23T19:35:28.209Z,98607.44
2022-10-23T19:37:56.059Z,98606.72
2022-10-23T19:40:22.699Z,98593.81
2022-10-23T19:42:49.286Z,98576.19
2022-10-23T19:45:16.731Z,98570.28
2022-10-23T19:47:43.697Z,98557.50
2022-10-23T19:50:10.651Z,98541.06
2022-10-23T19:52:38.163Z,98537.91
2022-10-23T19:55:07.588Z,98538.28
2022-10-23T19:57:34.196Z,98526.47
2022-10-23T20:00:01.252Z,98513.50
2022-10-23T20:02:28.287Z,98501.31
2022-10-23T20:04:54.864Z,98485.13
2022-10-23T20:07:21.495Z,98497.56
2022-10-23T20:09:48.130Z,98506.56
2022-10-23T20:12:16.172Z,98491.22
2022-10-23T20:14:42.677Z,98490.38
2022-10-23T20:17:09.232Z,98492.59
2022-10-23T20:19:35.844Z,98481.97
2022-10-23T20:22:02.430Z,98491.63
2022-10-23T20:24:29.175Z,98494.97
2022-10-23T20:26:55.797Z,98487.06
2022-10-23T20:29:24.434Z,98484.59
2022-10-23T20:31:51.238Z,98491.09
2022-10-23T20:34:18.123Z,98485.91
2022-10-23T20:36:47.226Z,98496.25
2022-10-23T20:39:16.227Z,98478.16
2022-10-23T20:41:42.869Z,98484.28
2022-10-23T20:44:12.521Z,98493.97
2022-10-23T20:46:41.219Z,98501.66
2022-10-23T20:49:07.812Z,98506.69
2022-10-23T20:51:34.361Z,98502.38
2022-10-23T20:54:01.212Z,98500.34
2022-10-23T20:56:29.757Z,98516.34
2022-10-23T20:58:56.447Z,98515.09
2022-10-23T21:01:23.053Z,98520.91
2022-10-23T21:03:52.753Z,98517.81
2022-10-23T21:06:19.832Z,98536.94
2022-10-23T21:08:46.400Z,98545.94
2022-10-23T21:11:14.557Z,98548.66
2022-10-23T21:13:41.626Z,98556.06
2022-10-23T21:16:12.612Z,98556.06
2022-10-23T21:18:46.080Z,98556.06
2022-10-23T21:21:15.921Z,98556.50
2022-10-23T21:23:42.716Z,98543.19
2022-10-23T21:26:09.536Z,98538.81
2022-10-23T21:28:36.125Z,98530.38
2022-10-23T21:31:03.721Z,98530.94
2022-10-23T21:33:30.863Z,98543.25
2022-10-23T21:35:58.445Z,98543.66
2022-10-23T21:38:32.835Z,98562.94
2022-10-23T21:41:05.325Z,98547.31
2022-10-23T21:43:31.949Z,98555.59
2022-10-23T21:46:02.355Z,98553.59
2022-10-23T21:48:28.857Z,98538.41
2022-10-23T21:50:57.535Z,98540.00
2022-10-23T21:53:24.208Z,98535.25
2022-10-23T21:55:52.403Z,98543.09
2022-10-23T21:58:18.932Z,98539.88
2022-10-23T22:00:45.572Z,98542.53
2022-10-23T22:03:12.079Z,98558.03
2022-10-23T22:05:38.612Z,98547.03
2022-10-23T22:08:05.538Z,98539.13
2022-10-23T22:10:33.874Z,98531.22
2022-10-23T22:13:01.857Z,98532.94
2022-10-23T22:15:28.418Z,98526.69
2022-10-23T22:17:55.115Z,98516.84
2022-10-23T22:20:21.655Z,98531.91
2022-10-23T22:22:48.187Z,98533.34
2022-10-23T22:25:14.741Z,98523.53
2022-10-23T22:27:41.419Z,98545.44
2022-10-23T22:30:10.471Z,98546.16
2022-10-23T22:32:36.966Z,98539.13
2022-10-23T22:35:04.095Z,98530.84
2022-10-23T22:37:30.587Z,98530.75
2022-10-23T22:39:57.108Z,98537.75
2022-10-23T22:42:23.615Z,98531.84
2022-10-23T22:44:50.135Z,98533.78
2022-10-23T22:47:17.983Z,98525.13
2022-10-23T22:49:44.585Z,98536.34
2022-10-23T22:52:11.067Z,98531.94
2022-10-23T22:54:37.700Z,98522.56
2022-10-23T22:57:04.223Z,98528.72
2022-10-23T22:59:30.779Z,98524.69
2022-10-23T23:01:57.385Z,98532.78
2022-10-23T23:04:37.335Z,98530.34
2022-10-23T23:07:05.187Z,98532.63
2022-10-23T23:09:31.696Z,98538.69
2022-10-23T23:11:58.210Z,98545.75
2022-10-23T23:14:24.859Z,98544.00
2022-10-23T23:16:52.317Z,98547.41
2022-10-23T23:19:19.027Z,98548.47
2022-10-23T23:21:46.911Z,98553.94
2022-10-23T23:24:13.607Z,98552.78
2022-10-23T23:26:40.147Z,98556.06
2022-10-23T23:29:06.768Z,98551.75
2022-10-23T23:31:33.403Z,98551.19
2022-10-23T23:33:59.904Z,98550.69
2022-10-23T23:36:27.853Z,98553.94
2022-10-23T23:38:57.062Z,98556.06
2022-10-23T23:41:24.888Z,98554.31
2022-10-23T23:43:53.718Z,98550.13
2022-10-23T23:46:20.275Z,98546.09
2022-10-23T23:48:46.958Z,98551.78
2022-10-23T23:51:13.712Z,98547.41
2022-10-23T23:53:40.330Z,98544.22
2022-10-23T23:56:08.441Z,98539.13
2022-10-23T23:58:35.177Z,98532.63
